Date,TemperatureHighF,TemperatureAvgF,TemperatureLowF,DewpointHighF,DewpointAvgF,DewpointLowF,HumidityHigh,HumidityAvg,HumidityLow,PressureMaxIn,PressureMinIn,WindSpeedMaxMPH,WindSpeedAvgMPH,GustSpeedMaxMPH,PrecipitationSumIn
2013-1-8,40,33,26,26,24,21,83,70,54,30.42,30.38,7,1,11,0.00
2013-1-9,50,37,19,37,28,16,89,72,60,30.39,30.05,23,6,32,0.00
2013-1-10,42,38,34,32,29,27,84,71,61,30.69,30.38,14,3,25,0.00
2013-1-11,43,38,34,37,32,29,87,77,66,30.53,30.03,13,5,25,0.13
2013-1-12,54,45,39,48,42,36,94,88,79,30.10,30.05,9,2,13,0.00
2013-1-13,63,53,46,55,49,43,94,86,74,30.06,29.83,11,3,20,0.00
2013-1-14,52,40,30,49,33,22,90,77,64,30.46,29.81,16,6,26,0.01
2013-1-15,35,31,29,24,22,20,76,70,54,30.50,30.28,7,2,12,0.00
2013-1-16,39,33,30,30,27,23,87,77,58,30.28,29.88,9,2,16,0.00
2013-1-17,37,27,19,30,19,13,85,72,62,30.28,29.93,17,6,24,0.00
2013-1-18,30,22,14,18,13,7,89,69,49,30.53,30.15,15,5,23,0.00
2013-1-19,50,43,31,30,25,18,62,49,37,30.15,29.68,17,6,28,0.00
2013-1-20,49,33,20,35,19,10,81,58,40,30.16,29.51,28,12,46,0.09
2013-1-21,23,20,16,14,10,8,80,66,55,30.15,29.96,11,5,18,0.00
2013-1-22,16,12,9,7,-1,-8,71,55,39,30.28,29.99,20,10,28,0.00
2013-1-23,11,8,2,6,2,-2,83,77,61,30.35,30.23,9,3,22,0.00
2013-1-24,14,8,-2,10,2,-5,86,78,66,30.61,30.22,11,4,25,0.00
2013-1-25,18,13,7,12,8,4,86,81,69,30.59,30.19,9,3,13,0.00
2013-1-26,23,13,2,17,9,-1,89,82,63,30.49,30.20,5,1,11,0.00
2013-1-27,28,22,18,17,16,14,90,76,61,30.65,30.48,7,1,10,0.01
2013-1-28,43,33,23,42,29,17,96,87,69,30.48,29.94,9,3,15,0.05
2013-1-29,51,41,33,49,40,32,97,96,93,30.16,29.85,11,2,18,0.33
2013-1-30,65,57,50,56,51,48,95,80,66,29.85,29.10,26,8,31,0.06
2013-1-31,56,34,26,52,25,12,92,69,48,29.71,29.07,28,16,45,0.28
2013-2-1,24,21,18,17,13,10,89,71,58,30.28,29.77,17,8,29,0.00
2013-2-2,21,19,16,16,12,7,86,73,60,30.28,30.08,15,5,21,0.00
2013-2-3,26,20,11,18,14,8,91,78,54,30.08,29.88,10,2,20,0.00
2013-2-4,23,20,18,15,12,7,81,70,50,30.05,29.94,16,7,23,0.00
2013-2-5,27,23,16,20,16,11,86,76,64,30.09,29.94,8,2,11,0.00
2013-2-6,28,24,15,25,16,10,91,73,53,30.49,29.96,15,5,25,0.00
2013-2-7,33,24,13,23,15,10,88,68,54,30.57,30.20,11,3,23,0.00
2013-2-8,37,31,21,33,26,19,94,84,59,30.20,29.87,9,4,22,0.08
2013-2-9,22,18,10,18,16,7,92,89,84,30.52,30.13,7,2,10,0.00
2013-2-10,36,20,1,24,14,-3,89,77,58,30.53,30.10,8,3,18,0.07
2013-2-11,49,39,36,39,30,24,79,70,58,30.10,29.66,23,9,36,0.30
2013-2-12,36,34,32,30,28,25,89,77,67,30.04,29.78,24,11,27,0.00
2013-2-13,39,32,23,26,24,21,89,74,55,30.00,29.81,9,2,18,0.00
2013-2-14,40,33,23,35,28,20,93,82,61,30.03,29.88,8,3,15,0.14
2013-2-15,39,36,27,35,25,17,93,66,51,30.13,29.86,20,9,32,0.01
2013-2-16,30,25,22,19,17,14,79,70,60,30.14,30.01,7,2,12,0.00
2013-2-17,23,17,13,17,11,5,87,78,64,30.26,29.99,16,5,24,0.00
2013-2-18,31,22,13,18,13,8,87,70,55,30.41,30.05,9,4,17,0.01
2013-2-19,42,35,27,35,25,18,87,69,52,30.05,29.65,23,9,28,0.07
2013-2-20,27,23,21,21,15,12,84,70,59,30.13,29.83,21,12,32,0.00
2013-2-21,22,18,15,17,14,8,89,80,72,30.52,30.11,18,7,26,0.00
2013-2-22,36,28,20,28,23,17,89,79,68,30.51,30.13,12,4,24,0.00
2013-2-23,40,36,33,34,30,27,92,82,76,30.13,29.95,11,4,16,0.06
2013-2-24,33,32,31,28,26,24,89,78,71,30.13,29.93,14,6,20,0.00
2013-2-25,38,34,29,29,27,25,89,78,60,30.32,30.13,9,3,14,0.00
2013-2-26,44,35,24,32,28,22,94,78,56,30.33,29.95,14,4,23,0.08
2013-2-27,37,34,33,36,33,32,96,93,90,29.95,29.65,8,3,15,1.03
2013-2-28,38,35,34,33,32,32,95,89,79,29.78,29.62,8,4,15,0.22
2013-3-1,34,31,28,32,27,22,94,86,79,30.00,29.79,11,6,18,0.02
2013-3-2,28,25,24,25,22,20,90,86,79,30.02,29.95,9,4,15,0.00
2013-3-3,26,24,22,21,19,18,89,83,74,29.97,29.93,11,4,15,0.00
2013-3-4,30,26,23,23,20,17,85,76,67,30.12,29.97,17,8,22,0.00
2013-3-5,32,28,24,25,22,21,88,80,71,30.20,30.07,7,2,13,0.02
2013-3-6,42,33,20,33,28,18,92,81,64,30.22,30.05,15,2,18,0.01
2013-3-7,38,35,32,32,29,25,90,78,65,30.35,30.21,7,2,13,0.00
2013-3-8,40,34,27,27,24,23,88,69,51,30.48,30.33,12,4,19,0.00
2013-3-9,50,36,24,32,27,22,93,72,42,30.50,30.33,5,1,9,0.00
2013-3-10,60,48,34,32,29,26,75,49,32,30.33,30.07,14,5,22,0.00
2013-3-11,55,52,49,46,32,28,71,47,42,30.08,29.77,23,8,31,0.00
2013-3-12,55,42,36,48,36,29,94,79,69,29.98,29.76,16,7,24,0.39
2013-3-13,38,34,26,30,25,18,91,70,52,30.01,29.92,21,8,29,0.02
2013-3-14,32,26,20,19,13,7,83,59,34,30.15,30.00,23,9,37,0.00
2013-3-15,38,32,25,31,24,14,91,73,57,30.12,29.79,20,7,28,0.04
2013-3-16,32,26,20,20,18,16,87,72,63,30.07,29.93,12,3,15,0.00
2013-3-17,29,25,19,22,17,11,91,75,53,30.44,30.06,11,3,14,0.03
2013-3-18,35,24,17,29,18,12,92,79,46,30.45,29.86,17,6,32,0.00
2013-3-19,38,32,27,35,28,20,94,82,60,29.91,29.78,24,7,32,0.18
2013-3-20,35,29,25,23,20,17,81,71,49,29.92,29.87,21,8,27,0.00
2013-3-21,30,26,21,26,19,12,91,73,47,29.91,29.80,16,6,22,0.00
2013-3-22,32,29,26,27,25,22,91,83,74,29.99,29.81,15,8,25,0.04
2013-3-23,37,33,30,27,25,23,85,72,59,30.08,29.97,14,6,23,0.00
2013-3-24,38,33,27,28,25,22,89,71,58,30.08,29.83,7,3,13,0.00
2013-3-25,42,36,32,30,27,24,83,69,56,29.83,29.69,14,3,17,0.00
2013-3-26,45,38,31,32,29,26,89,71,53,30.00,29.78,10,3,14,0.00
2013-3-27,45,38,33,35,31,27,93,77,59,30.13,29.98,13,6,22,0.07
2013-3-28,45,39,34,35,32,27,92,78,52,30.27,30.11,11,4,16,0.01
2013-3-29,49,42,37,34,32,27,84,69,48,30.27,30.19,10,5,17,0.00
2013-3-30,52,41,32,31,27,23,80,60,35,30.27,30.14,10,3,14,0.00
2013-3-31,55,44,36,43,33,26,92,66,38,30.14,29.71,17,4,28,0.17
2013-4-1,45,36,28,41,28,15,93,72,40,30.01,29.63,33,7,33,0.05
2013-4-2,32,29,24,27,22,18,90,75,59,30.20,30.01,19,9,28,0.00
2013-4-3,36,32,28,21,18,13,69,57,39,30.45,30.19,20,8,25,0.00
2013-4-4,56,36,25,26,20,18,77,56,22,30.45,30.00,13,3,18,0.00
2013-4-5,42,38,31,30,24,18,78,59,43,30.22,29.95,14,6,26,0.00
2013-4-6,46,37,24,23,19,15,86,51,29,30.42,30.14,8,3,15,0.00
2013-4-7,71,54,44,46,32,21,69,44,32,30.14,29.78,22,9,33,0.00
2013-4-8,58,48,41,45,38,34,86,67,48,30.22,29.83,12,2,14,0.02
2013-4-9,63,52,45,50,44,40,95,76,50,30.19,29.82,17,5,34,0.55
2013-4-10,47,43,40,45,42,37,95,94,90,30.11,29.95,8,2,26,0.68
2013-4-11,40,36,33,38,32,27,93,86,66,30.25,30.06,11,4,18,0.26
2013-4-12,51,42,35,47,38,33,95,87,73,30.06,29.67,17,8,26,0.77
2013-4-13,47,43,40,38,35,31,82,73,56,30.01,29.85,17,6,24,0.00
2013-4-14,45,40,35,34,30,27,87,67,54,30.28,30.01,9,4,21,0.01
2013-4-15,74,54,34,49,40,28,81,60,40,30.27,30.09,13,6,24,0.00
2013-4-16,66,57,45,58,49,34,94,76,65,30.30,30.02,18,7,28,0.16
2013-4-17,54,46,36,36,34,29,88,63,42,30.44,30.30,10,2,14,0.00
2013-4-18,74,60,42,58,48,35,78,67,48,30.33,29.81,25,9,34,0.02
2013-4-19,72,59,43,60,50,31,84,71,57,29.85,29.46,21,12,33,0.10
2013-4-20,44,40,34,31,26,21,71,59,48,30.50,29.83,23,10,38,0.00
2013-4-21,43,36,30,25,21,12,75,56,35,30.78,30.50,9,2,12,0.00
2013-4-22,58,46,32,30,26,22,73,49,28,30.73,30.44,17,5,24,0.00
2013-4-23,61,51,39,37,33,28,65,51,39,30.44,30.04,14,6,23,0.00
2013-4-24,69,55,40,54,44,35,88,67,51,30.05,29.67,22,8,30,0.12
2013-4-25,57,45,36,40,32,25,90,64,31,30.38,30.05,17,5,24,0.04
2013-4-26,52,45,38,39,34,28,93,69,42,30.56,30.38,8,2,23,0.01
2013-4-27,69,53,36,42,36,32,89,58,28,30.54,30.33,6,1,12,0.00
2013-4-28,73,59,44,48,41,34,87,55,24,30.33,30.11,16,5,26,0.10
2013-4-29,63,57,51,52,50,46,88,77,65,30.16,30.08,19,7,31,0.11
2013-4-30,71,62,55,54,52,51,91,72,54,30.29,30.15,15,6,22,0.03
2013-5-1,77,65,56,52,42,32,79,49,20,30.44,30.30,15,5,24,0.00
2013-5-2,78,64,51,46,41,37,75,46,25,30.49,30.33,10,3,17,0.00
2013-5-3,76,65,50,49,46,43,85,54,31,30.39,30.27,12,3,19,0.00
2013-5-4,75,62,48,47,42,40,83,50,30,30.35,30.21,8,2,18,0.00
2013-5-5,77,63,46,47,43,36,90,55,24,30.27,30.14,10,2,20,0.00
2013-5-6,77,62,47,48,40,23,81,49,14,30.24,30.07,11,3,18,0.00
2013-5-7,79,65,51,55,51,47,90,63,33,30.20,30.06,7,1,13,0.00
2013-5-8,69,62,55,62,57,51,94,82,65,30.14,29.97,11,2,19,0.20
2013-5-9,70,61,54,61,57,52,95,85,67,30.01,29.93,10,2,17,0.04
2013-5-10,74,62,52,63,57,51,95,84,62,30.02,29.81,11,3,24,0.49
2013-5-11,60,56,48,58,50,44,95,83,68,29.86,29.73,18,4,22,0.15
2013-5-12,51,46,37,44,36,29,91,69,44,30.00,29.77,22,9,36,0.07
2013-5-13,49,43,38,34,32,29,77,65,45,30.20,30.00,19,8,23,0.00
2013-5-14,59,44,32,38,33,28,94,67,31,30.25,30.05,8,2,13,0.00
2013-5-15,81,61,45,59,46,34,87,61,41,30.05,29.59,22,6,32,0.09
2013-5-16,75,63,50,49,43,34,88,53,24,30.05,29.78,22,5,26,0.00
2013-5-17,65,54,41,44,41,34,94,65,31,30.29,30.05,7,1,11,0.00
2013-5-18,72,58,42,51,45,40,94,65,40,30.33,30.21,8,2,13,0.00
2013-5-19,77,66,57,62,57,51,83,72,58,30.22,30.06,13,5,22,0.00
2013-5-20,85,73,58,67,62,56,93,72,51,30.11,29.90,8,1,12,0.00
2013-5-21,85,71,63,72,65,60,95,81,59,29.97,29.80,8,2,31,0.78
2013-5-22,87,73,62,72,65,59,97,78,47,29.87,29.69,10,2,22,0.07
2013-5-23,76,68,47,65,60,45,93,76,60,29.92,29.75,13,5,21,0.25
2013-5-24,50,44,39,44,39,37,95,86,65,30.24,29.92,12,6,17,0.28
2013-5-25,57,49,42,40,37,34,81,63,42,30.27,30.19,14,6,23,0.00
2013-5-26,61,53,44,40,36,32,80,56,35,30.26,30.16,14,5,24,0.00
2013-5-27,69,57,45,46,38,33,80,53,29,30.33,30.20,8,2,13,0.00
2013-5-28,64,57,51,58,51,42,95,82,67,30.23,30.01,17,3,17,0.70
2013-5-29,81,71,58,68,63,57,97,78,52,30.06,29.96,15,4,22,0.73
2013-5-30,88,76,62,69,64,60,94,70,40,30.17,30.06,8,2,15,0.00
2013-5-31,91,78,64,70,65,61,93,68,38,30.14,29.95,12,2,15,0.00
2013-6-1,89,77,66,69,66,63,92,72,47,30.00,29.81,15,4,24,0.02
2013-6-2,76,70,58,68,63,52,95,80,55,29.91,29.74,31,6,35,0.57
2013-6-3,62,56,51,52,46,41,86,68,46,30.07,29.91,14,4,17,0.00
2013-6-4,65,57,48,48,42,33,87,62,34,30.22,30.07,12,4,17,0.00
2013-6-5,68,58,50,51,46,40,88,65,44,30.30,30.15,6,2,12,0.00
2013-6-6,58,56,54,56,52,46,96,88,70,30.16,29.91,7,2,13,2.31
2013-6-7,62,59,56,61,58,55,97,96,95,29.93,29.85,5,1,10,0.29
2013-6-8,64,59,56,60,57,55,98,93,82,30.14,29.85,7,2,11,0.04
2013-6-9,76,64,54,58,55,52,96,74,48,30.26,30.13,6,1,9,0.00
2013-6-10,68,64,59,64,60,56,95,87,72,30.19,29.77,15,4,19,0.41
2013-6-11,66,64,58,64,61,54,97,90,79,29.88,29.71,11,4,22,0.28
2013-6-12,75,65,54,58,55,52,95,72,46,30.01,29.84,7,2,11,0.00
2013-6-13,65,60,55,59,57,54,96,90,80,29.84,29.59,10,3,18,1.23
2013-6-14,73,63,54,58,56,52,97,80,58,30.01,29.83,11,4,16,0.00
2013-6-15,74,65,54,58,53,47,95,68,41,30.10,30.00,11,2,15,0.00
2013-6-16,74,67,61,66,60,54,94,81,70,30.00,29.75,10,2,19,0.20
2013-6-17,78,68,61,64,62,58,94,80,56,29.98,29.88,14,2,24,0.44
2013-6-18,68,61,54,59,52,47,95,75,49,30.09,29.94,8,2,15,0.00
2013-6-19,66,59,50,51,46,38,92,65,36,30.26,30.08,7,2,11,0.00
2013-6-20,75,61,45,53,47,39,95,65,32,30.34,30.26,11,1,11,0.00
2013-6-21,83,67,50,59,54,49,95,67,36,30.35,30.23,5,1,10,0.00
2013-6-22,86,75,60,73,65,57,92,74,50,30.23,30.05,9,2,16,0.00
2013-6-23,88,78,69,74,70,67,92,79,61,30.11,30.03,10,3,24,0.13
2013-6-24,88,79,69,70,67,63,91,69,48,30.09,29.99,15,4,23,0.00
2013-6-25,83,76,68,70,67,63,90,73,61,29.99,29.83,13,4,22,0.01
2013-6-26,84,74,69,72,68,65,93,81,57,29.88,29.81,10,3,23,0.17
2013-6-27,82,72,64,71,67,63,96,85,69,29.85,29.77,4,1,7,0.01
2013-6-28,67,65,62,65,63,60,96,95,92,29.66,29.55,5,1,9,0.25
2013-6-29,76,67,62,65,63,61,96,87,61,29.74,29.55,8,1,10,0.02
2013-6-30,78,70,63,67,64,62,96,82,66,29.96,29.74,6,1,11,0.00
2013-7-1,68,65,62,64,63,60,95,92,84,30.09,29.96,8,2,15,0.50
2013-7-2,79,67,61,72,64,60,97,91,77,30.15,30.07,5,1,13,0.05
2013-7-3,87,72,64,74,69,64,97,89,60,30.22,30.13,11,1,29,2.03
2013-7-4,86,75,69,73,70,67,97,86,62,30.24,30.16,10,2,15,0.05
2013-7-5,85,76,69,75,71,68,96,87,67,30.21,30.11,7,1,16,0.37
2013-7-6,88,77,69,71,68,64,96,76,46,30.21,30.08,6,1,9,0.00
2013-7-7,84,77,70,73,70,66,95,79,60,30.11,29.99,11,3,15,0.11
2013-7-8,83,74,69,73,69,65,95,85,68,30.09,30.03,6,2,14,0.29
2013-7-9,84,74,68,74,70,67,96,88,65,30.11,29.94,5,0,19,0.23
2013-7-10,87,78,71,74,70,64,95,80,63,29.94,29.75,11,4,23,0.14
2013-7-11,76,70,63,65,61,58,94,74,58,30.07,29.85,11,3,15,0.00
2013-7-12,76,68,61,64,61,59,96,81,59,30.23,30.07,6,1,11,0.00
2013-7-13,80,72,61,70,66,60,96,83,68,30.29,30.21,8,2,12,0.00
2013-7-14,90,78,66,75,70,65,95,78,53,30.35,30.27,7,1,12,0.00
2013-7-15,88,79,71,74,71,65,94,78,50,30.35,30.26,8,1,11,0.00
2013-7-16,89,78,67,71,68,65,94,74,48,30.35,30.24,9,1,11,0.00
2013-7-17,75,71,70,70,68,68,92,91,85,30.28,30.24,0,0,1,0.00
2013-7-18,88,81,72,78,74,67,94,81,67,30.12,29.98,10,2,27,2.36
2013-7-19,92,83,71,76,72,66,87,70,51,29.98,29.75,18,6,33,0.04
2013-7-20,77,72,68,69,67,64,95,86,71,29.92,29.74,13,2,20,0.60
2013-7-21,74,68,62,66,61,58,96,79,58,30.06,29.93,8,1,11,0.00
2013-7-22,81,70,60,67,63,59,96,80,57,30.06,29.83,6,1,8,0.02
2013-7-23,80,70,67,70,67,66,96,92,69,29.83,29.72,4,0,8,0.48
2013-7-29,71,65,62,60,58,54,90,80,56,30.18,30.12,11,3,20,0.04
2013-7-30,64,60,58,58,57,56,92,88,82,30.25,30.18,5,2,9,0.00
2013-8-8,85,76,70,73,70,68,95,83,63,30.02,29.96,8,1,13,0.81
2013-8-9,76,70,65,69,67,61,97,91,74,29.98,29.91,7,1,11,0.53
2013-8-10,70,66,57,61,57,52,94,76,52,30.16,29.98,11,3,15,0.00
2013-8-11,74,64,52,61,56,51,96,78,53,30.20,30.11,5,0,12,0.01
2013-8-12,78,69,61,66,61,58,93,78,56,30.12,29.92,5,0,9,0.00
2013-8-13,73,66,60,66,60,50,95,81,62,29.92,29.81,13,4,22,0.37
2013-8-14,67,60,54,56,51,49,92,74,52,30.14,29.90,16,5,20,0.02
2013-8-15,72,62,52,57,52,49,91,71,48,30.22,30.14,9,3,19,0.00
2013-8-16,77,65,54,62,55,51,93,73,45,30.28,30.19,6,1,9,0.00
2013-8-17,81,67,54,62,58,53,96,76,46,30.37,30.28,6,1,9,0.00
2013-8-18,80,69,59,65,60,58,95,77,51,30.32,30.17,5,0,10,0.00
2013-8-19,81,70,61,66,62,58,93,77,48,30.19,30.08,6,1,9,0.00
2013-8-20,82,71,59,66,62,58,94,75,48,30.20,30.12,10,2,13,0.00
2013-8-21,85,73,61,70,64,59,93,75,51,30.23,30.08,9,1,10,0.00
2013-8-22,83,72,63,72,67,62,94,83,61,30.09,29.93,9,2,24,0.30
2013-8-23,68,62,60,63,59,56,95,89,81,30.15,30.03,1,0,5,0.00
2013-8-26,77,71,68,70,68,64,96,90,78,30.14,29.98,12,3,16,1.45
2013-8-27,83,73,67,72,69,66,97,89,67,30.01,29.93,5,0,9,0.00
2013-8-28,84,73,68,72,69,66,97,88,68,29.95,29.92,6,1,10,0.12
2013-9-5,65,60,49,52,47,41,88,64,47,30.30,30.17,12,4,17,0.00
2013-9-6,70,57,45,54,47,43,94,73,44,30.37,30.18,8,1,12,0.00
2013-9-7,66,60,52,61,55,50,95,85,68,30.18,29.94,5,0,10,0.03
2013-9-8,64,61,49,63,52,44,96,76,49,30.19,29.92,10,2,18,0.10
2013-9-9,75,61,47,61,52,45,95,76,50,30.25,30.05,10,2,18,0.00
2013-9-10,92,77,64,77,70,61,91,79,59,30.06,29.98,14,3,23,0.08
2013-9-11,92,83,74,75,72,67,84,72,54,30.09,29.94,9,3,15,0.00
2013-9-12,74,70,61,69,66,60,95,87,80,29.97,29.77,8,2,19,0.13
2013-9-13,61,55,51,59,53,48,95,92,85,30.07,29.79,8,4,16,0.17
2013-9-14,60,52,46,49,47,44,94,82,55,30.20,30.06,11,2,13,0.00
2013-9-15,68,56,45,54,49,43,96,78,53,30.24,30.12,10,2,17,0.01
2013-9-16,54,51,44,53,49,43,96,91,77,30.45,30.14,7,2,16,0.16
2013-9-17,65,51,38,48,42,37,97,76,44,30.59,30.39,4,1,10,0.01
2013-9-18,74,55,42,54,47,41,94,77,43,30.39,30.18,5,0,8,0.01
2013-9-19,78,62,47,59,53,45,94,75,45,30.21,30.08,5,0,11,0.00
2013-9-20,82,67,53,65,59,51,94,75,52,30.08,29.85,14,3,19,0.00
2013-9-21,69,64,55,63,60,53,96,87,74,29.85,29.69,11,3,18,0.67
2013-9-22,55,52,50,52,46,42,93,79,66,30.08,29.77,14,6,19,0.01
2013-9-23,56,51,44,46,43,41,95,75,59,30.23,30.08,9,3,16,0.00
2013-9-24,62,50,40,48,43,39,96,79,49,30.23,30.08,8,2,13,0.00
2013-9-25,68,52,41,53,46,39,95,80,49,30.10,30.02,7,1,11,0.01
2013-9-26,68,55,42,56,49,41,96,82,59,30.22,30.08,4,1,11,0.01
2013-9-27,68,52,45,56,48,44,96,89,65,30.34,30.22,2,0,7,0.01
2013-10-17,60,58,56,51,50,50,82,75,68,29.96,29.95,5,3,13,0.00
2013-11-1,64,58,50,58,50,43,90,73,52,29.74,29.29,35,12,48,0.20
2013-11-2,51,46,39,47,43,36,94,89,79,30.05,29.67,10,3,15,0.41
2013-11-3,39,35,30,36,27,23,89,72,57,30.63,30.05,13,4,14,0.01
2013-11-4,43,35,25,29,23,17,94,64,38,30.77,30.56,7,1,14,0.00
2013-11-5,55,46,37,37,30,22,62,52,44,30.59,30.42,11,3,14,0.00
2013-11-6,63,56,47,52,45,36,80,68,57,30.42,29.88,18,6,26,0.01
2013-11-7,59,45,39,54,39,31,93,80,61,30.05,29.85,15,5,21,0.48
2013-11-8,42,39,35,34,31,26,88,73,56,30.31,30.02,16,6,22,0.03
2013-11-9,52,43,36,41,32,29,80,66,54,30.30,29.86,11,3,22,0.00
2013-11-10,52,44,40,42,36,32,89,73,63,30.21,29.85,23,8,34,0.14
2013-11-11,47,39,31,37,32,28,94,78,54,30.25,30.01,13,5,25,0.12
2013-11-12,32,29,26,28,23,20,90,79,64,30.47,30.17,15,6,22,0.00
2013-11-13,38,31,22,26,21,15,77,65,48,30.54,30.18,16,7,21,0.02
2013-11-14,54,44,36,28,19,13,59,39,21,30.22,30.09,17,6,25,0.00
2013-11-15,54,48,44,30,22,18,52,36,30,30.21,30.13,12,3,18,0.00
2013-11-16,58,49,38,42,35,27,76,60,44,30.33,30.14,9,2,15,0.00
2013-11-17,60,55,51,55,50,42,90,82,69,30.14,29.46,23,9,32,0.16
2013-11-18,60,48,38,50,37,28,88,66,55,29.95,29.45,29,14,37,0.33
2013-11-19,38,35,30,30,27,23,82,71,59,30.54,29.96,15,6,31,0.00
2013-11-20,38,31,25,24,21,18,91,67,46,30.71,30.54,7,1,11,0.00
2013-11-21,46,40,32,37,26,17,86,59,48,30.59,30.36,11,3,17,0.00
2013-11-22,48,43,34,47,40,28,95,91,77,30.34,30.05,17,3,29,0.31
2013-11-23,36,29,20,28,22,10,90,75,59,30.26,30.07,17,8,34,0.00
2013-11-24,24,20,17,18,15,11,91,79,62,30.50,30.24,14,7,26,0.00
2013-11-25,36,29,19,22,15,9,82,58,33,30.51,30.21,11,5,27,0.02
2013-11-26,38,34,33,32,29,22,96,80,65,30.26,29.90,9,3,27,0.02
2013-11-27,34,31,24,34,28,18,100,89,76,29.95,29.69,16,5,27,0.16
2013-11-28,28,24,20,20,17,14,87,75,60,30.52,29.95,16,5,21,0.02
2013-11-29,29,22,10,22,17,8,93,80,59,30.85,30.52,9,2,14,0.03
2013-11-30,32,23,8,23,16,5,90,75,61,30.85,30.32,14,4,21,0.00
2013-12-1,39,34,30,33,29,23,93,80,69,30.31,30.05,7,2,9,0.28
2013-12-2,42,37,34,36,34,32,94,88,73,30.05,29.95,3,0,6,0.24
2013-12-3,40,33,28,32,29,26,93,87,64,30.10,29.99,5,1,7,0.00
2013-12-4,48,39,30,40,35,27,93,86,73,30.14,30.01,7,2,11,0.01
2013-12-5,60,51,43,53,46,36,87,80,63,30.06,29.83,11,6,20,0.00
2013-12-6,43,35,31,36,29,24,93,81,68,30.33,30.05,7,3,13,0.28
2013-12-7,31,29,26,27,20,15,86,70,56,30.66,30.33,14,6,20,0.00
2013-12-8,30,26,20,24,16,13,88,68,52,30.69,30.35,9,3,21,0.00
2013-12-9,43,35,27,36,30,24,88,79,68,30.35,29.94,18,8,29,0.10
2013-12-10,35,27,22,25,18,10,90,69,59,30.14,30.01,18,6,25,0.00
2013-12-11,25,22,16,21,14,10,87,71,58,30.36,30.14,15,7,21,0.00
2013-12-12,20,17,13,15,11,8,88,76,62,30.43,30.13,17,6,24,0.00
2013-12-13,25,20,16,21,14,9,90,77,64,30.49,30.11,26,7,27,0.00
2013-12-14,24,14,9,22,10,0,92,83,64,30.57,29.87,13,4,18,0.00
2013-12-15,26,22,18,23,19,11,93,86,63,29.92,29.70,16,5,25,0.00
2013-12-16,22,16,0,17,10,-3,87,80,64,30.30,29.92,13,4,25,0.00
2013-12-17,29,19,-2,25,15,-6,96,86,79,30.28,30.02,8,2,14,0.00
2013-12-18,32,29,25,25,23,21,91,77,65,30.16,30.01,12,4,23,0.08
2013-12-19,43,36,28,32,27,19,83,70,58,30.14,29.99,11,3,21,0.23
2013-12-20,46,41,36,43,38,32,95,87,77,30.09,29.86,7,1,10,0.04
2013-12-21,55,42,33,52,40,31,96,93,87,29.96,29.82,9,2,18,0.71
2013-12-22,46,36,32,43,34,31,97,94,86,30.04,29.67,12,3,23,0.24
2013-12-23,42,37,29,38,33,25,90,85,65,30.33,30.04,15,4,24,0.00
2013-12-24,29,21,13,25,18,8,91,85,75,30.58,30.30,11,3,17,0.00
2013-12-25,26,16,7,16,10,4,89,77,64,30.64,30.33,9,3,15,0.00
2013-12-26,34,29,25,28,21,16,90,73,66,30.36,30.15,14,5,27,0.02
2013-12-27,33,29,24,28,23,15,88,79,67,30.38,30.19,11,2,23,0.00
2013-12-28,46,38,27,35,30,24,91,76,59,30.19,30.03,12,3,23,0.01
2013-12-29,46,39,31,40,34,28,95,82,63,30.03,29.71,14,2,23,0.18
2013-12-30,33,20,16,28,14,10,90,79,71,30.32,29.81,11,5,23,0.00
2013-12-31,26,19,16,18,11,5,83,70,58,30.34,30.07,23,7,33,0.00
2014-1-1,22,18,14,15,10,8,92,72,60,30.50,30.33,12,4,19,0.00
2014-1-2,16,12,8,13,9,5,89,87,85,30.41,30.08,18,5,21,0.00